• Join FlightAware (Why Join?)
  • Login
  • US Flag 
08:30PM EDT


 

Airport Tracker/Info


-or-


 

Live Flight TrackerFlight Track Log ✈ DCM6791 ✈ 12-Jun-2013 ✈ KCID - KONA

Flight Track Log - Related Links

Times and Time Zones

All times are in EDT time to prevent confusion due to time zone crossing. See the DCM6791 flight status page for this flight to view local times or setup timezone preferences in your user account.

Time Position Orientation Groundspeed Altitude Reporting Facility
EDT Latitude Longitude Course Direction KTS MPH feet Rate Location/Type
09:17AM 41.9358 -91.6781 North 110 127 2,900  Level Chicago Center
09:18AM 41.9747 -91.6792 359° North 124 143 3,700 480 Climbing Chicago Center
09:19AM 42.0175 -91.6819 357° North 141 162 4,000 120 Climbing Chicago Center
09:20AM 42.0664 -91.6786 North 158 182 4,000  Level Chicago Center
09:21AM 42.1833 -91.7000 North  Level FlightAware Approximate
09:21AM 42.1194 -91.6808 358° North 178 205 4,100  Level Chicago Center
09:22AM 42.2333 -91.7000 North  Level FlightAware Approximate
09:22AM 42.1797 -91.6822 359° North 183 211 4,000  Level Chicago Center
09:23AM 42.2286 -91.6831 359° North 181 208 4,000  Level Chicago Center
09:24AM 42.2808 -91.6831 360° North 183 211 4,100  Climbing Chicago Center
09:25AM 42.3339 -91.6847 359° North 188 216 4,000 -60 Descending Chicago Center
09:26AM 42.3850 -91.6856 359° North 188 216 4,000  Level Chicago Center
09:27AM 42.4472 -91.6867 359° North 187 215 4,000  Level Chicago Center
09:28AM 42.5006 -91.6872 360° North 190 219 4,000  Level Chicago Center
09:29AM 42.5539 -91.6878 360° North 192 221 4,000  Level Chicago Center
09:30AM 42.6067 -91.6892 359° North 191 220 4,000  Level Chicago Center
09:31AM 42.6611 -91.6894 360° North 193 222 4,000  Level Chicago Center
09:32AM 42.7167 -91.6894 360° North 196 226 4,000  Level Chicago Center
09:33AM 42.7731 -91.6906 359° North 198 228 4,000  Level Chicago Center
09:34AM 42.8397 -91.6925 359° North 198 228 4,000  Level Chicago Center
09:35AM 42.8953 -91.6939 359° North 199 229 4,000  Level Chicago Center
09:36AM 42.9508 -91.6947 359° North 200 230 4,000  Level Chicago Center
09:37AM 43.0067 -91.6967 359° North 201 231 4,000  Level Chicago Center
09:38AM 43.0622 -91.6978 359° North 201 231 4,000 -60 Level Chicago Center
09:39AM 43.1172 -91.6989 359° North 200 230 3,900 60 Descending Chicago Center
09:40AM 43.1397 -91.6972 North 200 230 4,100 120 Climbing Minneapolis Center
09:41AM 43.1944 -91.6978 360° North 199 229 4,100  Level Minneapolis Center
09:42AM 43.2483 -91.6992 359° North 197 227 4,100 -60 Level Minneapolis Center
09:43AM 43.3097 -91.6992 360° North 197 227 4,000 -60 Descending Minneapolis Center
09:44AM 43.3667 -91.7000 359° North 193 222 4,000  Level Minneapolis Center
09:45AM 43.4200 -91.7011 359° North 193 222 4,000  Level Minneapolis Center
09:46AM 43.4753 -91.7022 359° North 193 222 4,000 -60 Level Minneapolis Center
09:48AM 43.5678 -91.7086 357° North 193 222 3,900 -300 Descending Chicago Center
09:49AM 43.6219 -91.7083 360° North 194 223 3,300 -600 Descending Chicago Center